Terminal Aerodrome Forecast
Issued by NWS

Home | Current Version | Previous Version | Text Only | Print | Product List | Glossary On
Versions: 1 2 3 4 5 6 7 8 9 10 11 12 13 14 15
000
FTUS43 KICT 301730
TAFSLN
TAF
KSLN 301730Z 3018/3118 17010KT P6SM BKN150
     FM310000 17008KT P6SM OVC080
     FM310700 17010KT 5SM -RASN SCT015 OVC025
     FM311500 18013KT P6SM -RA SCT015 OVC030=

USA.gov is the U.S. government's official web portal to all federal, state and local government web resources and services.